Terminal Aerodrome Forecast
Issued by NWS

Home | Current Version | Previous Version | Text Only | Print | Product List | Glossary On
Versions: 1 2 3 4 5 6 7 8 9 10 11 12 13 14 15 16 17
000
FTUS43 KMPX 310524
TAFRNH
TAF
KRNH 310524Z 3106/0106 18005KT P6SM BKN025
     FM311200 35008KT P6SM OVC015
     FM311900 02009KT P6SM SCT020 BKN150
     FM010000 03012G16KT P6SM SCT025 BKN110=

USA.gov is the U.S. government's official web portal to all federal, state and local government web resources and services.